Time;durP1;ratioP1;P1;durP2;ratioP2;P2;SDS_P1;SDS_P2;PMS_P1;PMS_P2;Temp;Humidity;BMP_temperature;BMP_pressure;BME280_temperature;BME280_humidity;BME280_pressure;Samples;Min_cycle;Max_cycle;Signal;HPM_P1;HPM_P2
2021/06/12 00:01:11;;;;;;;547.17;471.05;;;;;;;;;;4981806;28;20034;-74
2021/06/12 00:03:37;;;;;;;552.20;476.55;;;;;;;;;;4952491;28;20023;-74
2021/06/12 00:06:04;;;;;;;549.05;470.42;;;;;;;;;;4983650;28;20035;-75
2021/06/12 00:08:30;;;;;;;569.83;490.70;;;;;;;;;;4981083;28;20041;-74
2021/06/12 00:10:57;;;;;;;540.42;464.38;;;;;;;;;;4978242;28;20027;-74
2021/06/12 00:13:23;;;;;;;565.25;488.92;;;;;;;;;;4984077;28;20352;-74
2021/06/12 00:15:50;;;;;;;542.45;465.35;;;;;;;;;;4973737;28;20130;-74
2021/06/12 00:18:16;;;;;;;544.65;465.23;;;;;;;;;;4985868;28;20145;-74
2021/06/12 00:20:42;;;;;;;549.97;474.33;;;;;;;;;;4969569;28;20045;-74
2021/06/12 00:23:09;;;;;;;552.97;476.08;;;;;;;;;;4980426;28;20038;-74
2021/06/12 00:25:38;;;;;;;569.40;491.08;;;;;;;;;;4963491;28;20437;-74
2021/06/12 00:28:05;;;;;;;548.05;475.38;;;;;;;;;;4984513;28;20022;-74
2021/06/12 00:30:31;;;;;;;545.00;468.88;;;;;;;;;;4964073;28;20054;-74
2021/06/12 00:32:58;;;;;;;606.42;529.63;;;;;;;;;;4967812;28;20054;-74
2021/06/12 00:35:24;;;;;;;550.88;475.40;;;;;;;;;;4982779;28;20039;-73
2021/06/12 00:37:50;;;;;;;655.38;581.20;;;;;;;;;;4969613;28;20049;-73
2021/06/12 00:40:17;;;;;;;566.88;488.63;;;;;;;;;;4962645;28;20034;-73
2021/06/12 00:42:43;;;;;;;645.50;563.88;;;;;;;;;;4981543;28;20378;-76
2021/06/12 00:45:12;;;;;;;581.75;503.52;;;;;;;;;;4981842;28;20026;-73
2021/06/12 00:47:39;;;;;;;699.97;623.13;;;;;;;;;;4986509;28;20049;-73
2021/06/12 00:50:06;;;;;;;540.65;462.38;;;;;;;;;;4982582;28;20037;-73
2021/06/12 00:52:32;;;;;;;531.67;454.80;;;;;;;;;;4961843;28;20039;-76
2021/06/12 00:54:58;;;;;;;529.33;457.33;;;;;;;;;;4988863;28;20895;-76
2021/06/12 00:57:24;;;;;;;527.63;452.52;;;;;;;;;;4979107;28;20073;-76
2021/06/12 00:59:50;;;;;;;528.58;452.45;;;;;;;;;;4980641;28;20145;-73
2021/06/12 01:02:16;;;;;;;529.45;455.52;;;;;;;;;;4969575;28;20026;-73
2021/06/12 01:04:43;;;;;;;527.67;452.80;;;;;;;;;;4964607;28;20489;-73
2021/06/12 01:07:10;;;;;;;529.90;454.20;;;;;;;;;;4983155;28;20401;-74
2021/06/12 01:09:36;;;;;;;528.95;454.30;;;;;;;;;;4976302;28;20402;-73
2021/06/12 01:12:07;;;;;;;528.65;455.67;;;;;;;;;;4978646;28;20038;-74
2021/06/12 01:14:36;;;;;;;529.20;456.30;;;;;;;;;;4960252;28;20149;-73
2021/06/12 01:17:06;;;;;;;532.28;457.38;;;;;;;;;;4963246;28;20087;-73
2021/06/12 01:19:39;;;;;;;531.08;452.60;;;;;;;;;;4979660;28;20050;-73
2021/06/12 01:22:09;;;;;;;527.67;448.98;;;;;;;;;;4964100;28;20023;-74
2021/06/12 01:24:53;;;;;;;528.00;451.38;;;;;;;;;;4962756;28;20035;-73
2021/06/12 01:27:58;;;;;;;528.70;450.63;;;;;;;;;;4977800;28;20034;-73
2021/06/12 01:30:25;;;;;;;529.83;447.67;;;;;;;;;;5014879;28;20100;-73
2021/06/12 01:32:55;;;;;;;526.97;448.48;;;;;;;;;;4997225;28;20038;-73
2021/06/12 01:35:34;;;;;;;529.65;449.45;;;;;;;;;;4982462;28;20070;-73
2021/06/12 01:38:00;;;;;;;532.60;457.17;;;;;;;;;;4939627;28;20109;-73
2021/06/12 01:40:32;;;;;;;531.97;458.35;;;;;;;;;;4945015;28;20050;-74
2021/06/12 01:42:59;;;;;;;531.45;458.05;;;;;;;;;;4961447;28;20019;-73
2021/06/12 01:45:26;;;;;;;532.25;460.52;;;;;;;;;;4942032;28;20110;-73
2021/06/12 01:47:53;;;;;;;526.75;445.13;;;;;;;;;;4962800;28;20035;-73
2021/06/12 01:50:19;;;;;;;528.15;447.00;;;;;;;;;;4983802;28;20426;-74
2021/06/12 01:52:46;;;;;;;533.08;453.33;;;;;;;;;;4954264;28;20098;-73
2021/06/12 01:55:12;;;;;;;529.20;448.08;;;;;;;;;;4960548;28;20046;-73
2021/06/12 01:57:42;;;;;;;530.55;444.95;;;;;;;;;;4989886;28;20030;-73
2021/06/12 02:00:09;;;;;;;542.63;457.05;;;;;;;;;;4962994;28;20119;-73
2021/06/12 02:02:35;;;;;;;554.00;475.25;;;;;;;;;;4996173;28;20039;-73
2021/06/12 02:05:02;;;;;;;555.45;472.50;;;;;;;;;;4953024;28;20032;-73
2021/06/12 02:07:30;;;;;;;619.30;533.92;;;;;;;;;;4962491;28;20489;-73
2021/06/12 02:09:56;;;;;;;723.17;644.15;;;;;;;;;;5012489;28;20115;-73
2021/06/12 02:12:27;;;;;;;786.30;702.30;;;;;;;;;;4964910;28;20777;-73
2021/06/12 02:14:54;;;;;;;652.63;572.88;;;;;;;;;;4965367;28;20470;-73
2021/06/12 02:17:20;;;;;;;607.22;522.58;;;;;;;;;;4950606;28;20042;-73
2021/06/12 02:19:46;;;;;;;562.67;480.65;;;;;;;;;;4962823;28;20458;-74
2021/06/12 02:22:13;;;;;;;651.00;565.75;;;;;;;;;;4961892;28;20470;-73
2021/06/12 02:24:40;;;;;;;611.67;526.95;;;;;;;;;;4966207;28;20072;-73
2021/06/12 02:27:08;;;;;;;535.83;456.05;;;;;;;;;;5020832;28;20027;-74
2021/06/12 02:29:35;;;;;;;531.35;452.20;;;;;;;;;;4961380;28;20349;-73
2021/06/12 02:32:09;;;;;;;527.47;446.40;;;;;;;;;;4975924;28;20070;-73
2021/06/12 02:34:37;;;;;;;531.80;456.77;;;;;;;;;;4961464;28;20037;-73
2021/06/12 02:37:04;;;;;;;529.25;453.02;;;;;;;;;;4982021;28;20034;-74
2021/06/12 02:39:32;;;;;;;525.67;445.90;;;;;;;;;;4958621;28;20046;-74
2021/06/12 02:41:58;;;;;;;522.25;439.00;;;;;;;;;;4980796;28;20433;-73
2021/06/12 02:44:24;;;;;;;526.53;448.60;;;;;;;;;;4963310;28;20054;-74
2021/06/12 02:46:50;;;;;;;531.63;457.70;;;;;;;;;;4980734;28;20066;-73
2021/06/12 02:49:20;;;;;;;529.45;455.15;;;;;;;;;;4974835;28;20505;-74
2021/06/12 02:51:48;;;;;;;529.17;449.70;;;;;;;;;;4978055;28;20026;-74
2021/06/12 02:54:16;;;;;;;528.67;443.55;;;;;;;;;;4981130;28;20278;-74
2021/06/12 02:56:43;;;;;;;532.45;458.88;;;;;;;;;;4962159;28;20046;-74
2021/06/12 02:59:12;;;;;;;530.65;454.50;;;;;;;;;;4981706;28;20029;-74
2021/06/12 03:01:39;;;;;;;536.90;449.55;;;;;;;;;;4981474;28;20428;-75
2021/06/12 03:04:05;;;;;;;530.35;453.10;;;;;;;;;;4978035;28;20110;-74
2021/06/12 03:06:31;;;;;;;534.55;457.77;;;;;;;;;;4965723;28;20027;-73
2021/06/12 03:08:59;;;;;;;535.28;463.63;;;;;;;;;;4979933;28;20403;-73
2021/06/12 03:11:28;;;;;;;528.88;448.30;;;;;;;;;;4980280;28;20087;-74
2021/06/12 03:13:54;;;;;;;531.47;453.10;;;;;;;;;;4978213;28;20089;-74
2021/06/12 03:16:21;;;;;;;531.40;454.00;;;;;;;;;;4982314;28;20768;-74
2021/06/12 03:18:48;;;;;;;533.40;457.55;;;;;;;;;;4964931;28;20026;-74
2021/06/12 03:21:16;;;;;;;533.63;451.52;;;;;;;;;;4982911;28;20033;-74
2021/06/12 03:23:42;;;;;;;527.83;452.27;;;;;;;;;;4968163;28;20539;-74
2021/06/12 03:26:09;;;;;;;526.55;446.42;;;;;;;;;;4988639;28;20031;-74
2021/06/12 03:28:36;;;;;;;534.97;453.30;;;;;;;;;;4978318;28;20030;-74
2021/06/12 03:31:03;;;;;;;528.65;449.65;;;;;;;;;;4985245;28;20085;-74
2021/06/12 03:33:29;;;;;;;528.95;453.38;;;;;;;;;;4960315;28;20152;-73
2021/06/12 03:35:56;;;;;;;528.90;454.02;;;;;;;;;;4969499;28;20049;-73
2021/06/12 03:38:22;;;;;;;537.17;447.60;;;;;;;;;;4970423;28;20486;-74
2021/06/12 03:40:49;;;;;;;531.60;452.60;;;;;;;;;;4978989;28;20105;-74
2021/06/12 03:43:15;;;;;;;536.88;458.70;;;;;;;;;;4983922;28;20022;-74
2021/06/12 03:45:42;;;;;;;536.85;457.75;;;;;;;;;;4986639;28;20034;-74
2021/06/12 03:48:08;;;;;;;538.83;460.95;;;;;;;;;;4967530;28;20038;-74
2021/06/12 03:50:35;;;;;;;546.03;467.13;;;;;;;;;;4967790;28;20037;-74
2021/06/12 03:53:03;;;;;;;550.50;472.83;;;;;;;;;;4981269;28;20542;-74
2021/06/12 03:55:29;;;;;;;578.45;499.63;;;;;;;;;;4961081;28;20092;-75
2021/06/12 03:57:55;;;;;;;645.25;558.10;;;;;;;;;;4964857;28;20496;-74
2021/06/12 04:00:21;;;;;;;795.63;711.17;;;;;;;;;;4986316;28;20105;-73
2021/06/12 04:02:47;;;;;;;603.53;517.25;;;;;;;;;;4978403;28;20034;-74
2021/06/12 04:05:13;;;;;;;594.50;512.33;;;;;;;;;;4986953;28;20031;-74
2021/06/12 04:07:40;;;;;;;589.63;508.75;;;;;;;;;;4982966;28;20053;-74
2021/06/12 04:10:10;;;;;;;540.78;465.25;;;;;;;;;;4980790;28;20474;-75
2021/06/12 04:12:37;;;;;;;533.22;451.95;;;;;;;;;;4988614;28;20041;-75
2021/06/12 04:15:03;;;;;;;532.50;455.42;;;;;;;;;;4974066;28;20029;-74
2021/06/12 04:17:29;;;;;;;533.50;453.92;;;;;;;;;;4981624;28;20504;-74
2021/06/12 04:19:55;;;;;;;535.92;463.13;;;;;;;;;;4986791;28;20450;-73
2021/06/12 04:22:21;;;;;;;530.60;450.50;;;;;;;;;;4982023;28;20518;-74
2021/06/12 04:24:47;;;;;;;532.58;457.30;;;;;;;;;;4982481;28;20019;-74
2021/06/12 04:27:13;;;;;;;531.33;455.02;;;;;;;;;;4980152;28;20458;-75
2021/06/12 04:29:39;;;;;;;531.80;453.95;;;;;;;;;;4969050;28;20034;-74
2021/06/12 04:32:05;;;;;;;530.03;450.38;;;;;;;;;;4970139;28;20053;-74
2021/06/12 04:34:31;;;;;;;528.63;452.15;;;;;;;;;;4979296;28;20042;-74
2021/06/12 04:36:59;;;;;;;532.17;460.38;;;;;;;;;;4982822;28;20517;-75
2021/06/12 04:39:25;;;;;;;531.47;454.55;;;;;;;;;;4960912;28;20058;-73
2021/06/12 04:41:51;;;;;;;531.33;454.77;;;;;;;;;;4959453;28;20061;-74
2021/06/12 04:44:17;;;;;;;533.50;455.40;;;;;;;;;;5012717;28;20458;-74
2021/06/12 04:46:43;;;;;;;537.90;467.00;;;;;;;;;;4979562;28;20018;-73
2021/06/12 04:49:09;;;;;;;538.97;466.20;;;;;;;;;;4983855;28;20486;-74
2021/06/12 04:51:35;;;;;;;543.30;472.15;;;;;;;;;;4979525;28;20035;-75
2021/06/12 04:54:01;;;;;;;546.42;479.55;;;;;;;;;;4982959;28;20432;-74
2021/06/12 04:56:27;;;;;;;555.65;484.95;;;;;;;;;;4964585;28;20053;-74
2021/06/12 04:58:54;;;;;;;598.88;519.30;;;;;;;;;;4967112;28;20034;-75
2021/06/12 05:01:19;;;;;;;827.22;738.60;;;;;;;;;;4970232;28;20390;-74
2021/06/12 05:03:45;;;;;;;592.97;521.22;;;;;;;;;;4961671;28;20026;-75
2021/06/12 05:06:11;;;;;;;574.15;501.08;;;;;;;;;;4984277;28;20478;-75
2021/06/12 05:08:37;;;;;;;622.45;549.78;;;;;;;;;;4983123;28;20083;-74
2021/06/12 05:11:06;;;;;;;598.47;525.17;;;;;;;;;;4966229;28;20035;-74
2021/06/12 05:13:34;;;;;;;546.92;477.75;;;;;;;;;;4960804;28;20073;-75
2021/06/12 05:16:06;;;;;;;538.53;465.75;;;;;;;;;;4980153;28;20061;-74
2021/06/12 05:18:40;;;;;;;539.58;467.45;;;;;;;;;;5022170;28;20038;-74
2021/06/12 05:21:07;;;;;;;544.58;475.08;;;;;;;;;;4982939;28;20110;-75
2021/06/12 05:23:34;;;;;;;547.67;468.52;;;;;;;;;;4987441;28;20027;-74
2021/06/12 05:26:00;;;;;;;540.63;466.35;;;;;;;;;;4988457;28;20043;-75
2021/06/12 05:28:26;;;;;;;544.90;475.60;;;;;;;;;;4972664;28;20070;-74
2021/06/12 05:30:52;;;;;;;542.60;469.17;;;;;;;;;;4977685;28;20054;-74
2021/06/12 05:36:22;;;;;;;550.05;473.17;;;;;;;;;;4983931;28;20414;-74
2021/06/12 05:38:48;;;;;;;559.40;490.77;;;;;;;;;;4975356;28;20517;-73
2021/06/12 05:41:14;;;;;;;609.00;528.55;;;;;;;;;;4979006;28;20022;-74
2021/06/12 05:43:40;;;;;;;772.88;690.75;;;;;;;;;;4962206;28;20631;-73
2021/06/12 05:46:06;;;;;;;613.10;544.42;;;;;;;;;;4983772;28;20079;-74
2021/06/12 05:48:32;;;;;;;586.97;512.22;;;;;;;;;;4981610;28;20038;-74
2021/06/12 05:50:58;;;;;;;596.72;526.30;;;;;;;;;;4978140;28;20033;-75
2021/06/12 05:53:25;;;;;;;607.63;534.72;;;;;;;;;;4961901;28;20084;-73
2021/06/12 05:55:51;;;;;;;557.83;493.17;;;;;;;;;;4959041;28;20667;-74
2021/06/12 05:58:18;;;;;;;537.05;465.55;;;;;;;;;;4982713;28;20027;-74
2021/06/12 06:00:44;;;;;;;541.28;469.98;;;;;;;;;;4979788;28;20022;-74
2021/06/12 06:03:10;;;;;;;534.15;469.00;;;;;;;;;;4965251;28;20439;-74
2021/06/12 06:05:36;;;;;;;532.05;463.92;;;;;;;;;;4978621;28;20088;-73
2021/06/12 06:08:02;;;;;;;532.80;468.05;;;;;;;;;;4955120;28;20505;-73
2021/06/12 06:10:28;;;;;;;533.50;463.25;;;;;;;;;;4980082;28;20068;-73
2021/06/12 06:12:54;;;;;;;531.75;469.17;;;;;;;;;;4960590;28;20058;-74
2021/06/12 06:15:20;;;;;;;530.28;468.80;;;;;;;;;;4959968;28;20480;-73
2021/06/12 06:17:46;;;;;;;530.60;470.13;;;;;;;;;;4978734;28;20058;-73
2021/06/12 06:20:13;;;;;;;525.05;452.15;;;;;;;;;;5019482;28;20179;-74
2021/06/12 06:22:39;;;;;;;530.78;467.98;;;;;;;;;;4977889;28;20037;-74
2021/06/12 06:25:06;;;;;;;528.08;464.52;;;;;;;;;;4976882;28;20559;-74
2021/06/12 06:27:32;;;;;;;528.70;467.20;;;;;;;;;;4974192;28;20486;-73
2021/06/12 06:29:58;;;;;;;527.03;463.70;;;;;;;;;;4978109;28;20025;-73
2021/06/12 06:32:25;;;;;;;531.03;472.13;;;;;;;;;;4987878;28;20057;-74
2021/06/12 06:34:51;;;;;;;535.10;476.20;;;;;;;;;;4963795;28;20084;-75
2021/06/12 06:37:17;;;;;;;532.15;473.13;;;;;;;;;;5007189;28;20035;-74
2021/06/12 06:39:43;;;;;;;528.33;468.98;;;;;;;;;;4960756;28;20049;-74
2021/06/12 06:42:09;;;;;;;533.92;475.08;;;;;;;;;;4960497;28;20490;-74
2021/06/12 06:44:36;;;;;;;534.28;475.35;;;;;;;;;;4973601;28;20509;-74
2021/06/12 06:47:06;;;;;;;536.13;477.25;;;;;;;;;;4976884;28;20171;-73
2021/06/12 06:49:32;;;;;;;537.25;478.30;;;;;;;;;;4957587;28;20077;-74
2021/06/12 06:51:58;;;;;;;535.67;476.75;;;;;;;;;;4973028;28;20030;-73
2021/06/12 06:54:24;;;;;;;534.08;475.33;;;;;;;;;;4983928;28;20517;-73
2021/06/12 06:56:50;;;;;;;542.00;483.10;;;;;;;;;;4983259;28;20031;-74
2021/06/12 06:59:17;;;;;;;533.40;474.85;;;;;;;;;;4976220;28;20023;-73
2021/06/12 07:01:43;;;;;;;534.78;476.13;;;;;;;;;;4980996;28;20633;-74
2021/06/12 07:04:09;;;;;;;538.65;479.83;;;;;;;;;;4967453;28;20027;-73
2021/06/12 07:06:35;;;;;;;540.00;481.15;;;;;;;;;;4980605;28;20035;-74
2021/06/12 07:09:04;;;;;;;544.67;485.48;;;;;;;;;;4980648;28;20027;-73
2021/06/12 07:11:30;;;;;;;539.20;480.38;;;;;;;;;;4967089;28;20125;-73
2021/06/12 07:13:56;;;;;;;543.55;484.45;;;;;;;;;;4982052;28;20122;-74
2021/06/12 07:16:22;;;;;;;546.38;487.10;;;;;;;;;;4977379;28;20034;-74
2021/06/12 07:18:48;;;;;;;553.00;493.77;;;;;;;;;;4967448;28;20022;-73
2021/06/12 07:21:14;;;;;;;549.97;490.85;;;;;;;;;;4958435;28;20035;-74
2021/06/12 07:23:40;;;;;;;542.72;483.80;;;;;;;;;;4981592;28;20080;-74
2021/06/12 07:26:06;;;;;;;544.65;485.83;;;;;;;;;;4983108;28;20027;-76
2021/06/12 07:28:33;;;;;;;543.58;484.75;;;;;;;;;;4978481;28;20470;-74
2021/06/12 07:30:59;;;;;;;547.75;488.77;;;;;;;;;;4959568;28;20461;-74
2021/06/12 07:33:25;;;;;;;539.22;480.48;;;;;;;;;;4978318;28;20106;-75
2021/06/12 07:35:51;;;;;;;537.15;476.88;;;;;;;;;;4977737;28;20414;-74
2021/06/12 07:38:17;;;;;;;541.95;483.02;;;;;;;;;;4997495;28;20452;-74
2021/06/12 07:40:43;;;;;;;544.55;485.48;;;;;;;;;;4973709;28;20496;-74
2021/06/12 07:43:10;;;;;;;538.88;480.10;;;;;;;;;;4980306;28;20092;-75
2021/06/12 07:45:36;;;;;;;550.40;491.15;;;;;;;;;;4979796;28;20574;-74
2021/06/12 07:48:04;;;;;;;539.78;480.90;;;;;;;;;;4980006;28;20109;-74
2021/06/12 07:50:30;;;;;;;546.28;487.08;;;;;;;;;;4978764;28;20354;-75
2021/06/12 07:52:56;;;;;;;551.88;492.33;;;;;;;;;;4966556;28;20080;-74
2021/06/12 07:55:22;;;;;;;555.63;495.83;;;;;;;;;;4963722;28;20045;-73
2021/06/12 07:57:49;;;;;;;555.03;495.15;;;;;;;;;;4982619;28;20018;-74
2021/06/12 08:00:15;;;;;;;561.53;501.55;;;;;;;;;;4964134;28;20030;-74
2021/06/12 08:02:41;;;;;;;559.80;500.00;;;;;;;;;;4982659;28;20258;-74
2021/06/12 08:05:08;;;;;;;564.22;503.92;;;;;;;;;;4981268;28;20030;-74
2021/06/12 08:07:34;;;;;;;556.10;495.98;;;;;;;;;;4963122;28;20027;-73
2021/06/12 08:10:02;;;;;;;569.78;508.83;;;;;;;;;;4959737;28;20023;-74
2021/06/12 08:12:29;;;;;;;569.50;508.45;;;;;;;;;;4962085;28;20438;-73
2021/06/12 08:14:55;;;;;;;584.67;523.05;;;;;;;;;;4964775;28;20032;-74
2021/06/12 08:17:21;;;;;;;588.90;526.58;;;;;;;;;;4981334;28;20073;-75
2021/06/12 08:19:47;;;;;;;585.75;523.53;;;;;;;;;;4961797;28;20397;-74
2021/06/12 08:22:13;;;;;;;586.30;523.78;;;;;;;;;;4960880;28;20233;-74
2021/06/12 08:24:40;;;;;;;595.72;532.72;;;;;;;;;;5001050;28;20156;-75
2021/06/12 08:27:07;;;;;;;581.75;519.83;;;;;;;;;;4965844;28;20054;-77
2021/06/12 08:29:33;;;;;;;592.10;529.25;;;;;;;;;;4997619;28;20027;-74
2021/06/12 08:32:00;;;;;;;592.13;529.22;;;;;;;;;;5004736;28;20053;-74
2021/06/12 08:34:26;;;;;;;605.60;541.70;;;;;;;;;;4983673;28;20077;-74
2021/06/12 08:36:52;;;;;;;613.50;549.13;;;;;;;;;;4979491;28;20468;-74
2021/06/12 08:39:18;;;;;;;611.17;546.88;;;;;;;;;;4972331;28;20026;-75
2021/06/12 08:41:44;;;;;;;640.45;573.60;;;;;;;;;;4981774;28;20027;-75
2021/06/12 08:44:11;;;;;;;681.00;611.55;;;;;;;;;;4968055;28;20363;-76
2021/06/12 08:46:38;;;;;;;731.60;658.13;;;;;;;;;;4964065;28;20042;-75
2021/06/12 08:49:04;;;;;;;875.42;791.33;;;;;;;;;;4972765;28;20154;-75
2021/06/12 08:51:31;;;;;;;825.70;745.10;;;;;;;;;;4958960;28;20030;-75
2021/06/12 08:53:57;;;;;;;645.47;580.40;;;;;;;;;;4973220;28;20449;-76
2021/06/12 08:56:23;;;;;;;635.70;571.80;;;;;;;;;;4983036;28;20049;-76
2021/06/12 08:58:49;;;;;;;672.60;605.10;;;;;;;;;;4985168;28;20027;-75
2021/06/12 09:01:15;;;;;;;631.72;567.85;;;;;;;;;;4957935;28;20031;-75
2021/06/12 09:03:42;;;;;;;603.92;542.22;;;;;;;;;;4982955;28;20023;-75
2021/06/12 09:06:08;;;;;;;610.58;548.78;;;;;;;;;;4963369;28;20084;-75
2021/06/12 09:08:37;;;;;;;619.72;557.20;;;;;;;;;;4979036;28;20080;-75
2021/06/12 09:11:06;;;;;;;601.35;540.13;;;;;;;;;;4960801;28;20050;-74
2021/06/12 09:13:35;;;;;;;605.40;544.25;;;;;;;;;;4964947;28;20042;-75
2021/06/12 09:16:02;;;;;;;608.58;546.60;;;;;;;;;;4972698;28;20494;-76
2021/06/12 09:18:37;;;;;;;598.70;537.75;;;;;;;;;;4986312;28;20022;-74
2021/06/12 09:21:04;;;;;;;602.40;541.28;;;;;;;;;;4978486;28;20025;-76
2021/06/12 09:23:37;;;;;;;632.60;569.28;;;;;;;;;;4977961;28;20034;-75
2021/06/12 09:26:06;;;;;;;607.78;546.13;;;;;;;;;;4976739;28;20026;-75
2021/06/12 09:28:44;;;;;;;632.95;570.03;;;;;;;;;;4980304;28;20042;-74
2021/06/12 09:31:17;;;;;;;626.08;563.47;;;;;;;;;;4957302;28;20371;-75
2021/06/12 09:33:44;;;;;;;638.03;574.50;;;;;;;;;;4962442;28;20034;-75
2021/06/12 09:36:11;;;;;;;646.20;582.47;;;;;;;;;;4975013;28;20034;-75
2021/06/12 09:38:38;;;;;;;638.42;575.13;;;;;;;;;;4969852;28;20026;-74
2021/06/12 09:41:23;;;;;;;646.60;582.92;;;;;;;;;;4956472;28;20088;-75
2021/06/12 09:43:49;;;;;;;645.20;581.28;;;;;;;;;;4972381;28;20127;-74
2021/06/12 09:46:34;;;;;;;639.72;576.17;;;;;;;;;;4977035;28;20039;-75
2021/06/12 09:49:01;;;;;;;634.53;570.92;;;;;;;;;;4981276;28;20033;-75
2021/06/12 09:51:28;;;;;;;652.00;587.70;;;;;;;;;;4976292;28;20100;-74
2021/06/12 09:53:56;;;;;;;655.45;591.03;;;;;;;;;;4964233;28;20030;-74
2021/06/12 09:56:24;;;;;;;655.20;590.88;;;;;;;;;;4979360;28;20650;-74
2021/06/12 09:58:50;;;;;;;672.63;606.50;;;;;;;;;;4983225;28;20042;-75
2021/06/12 10:01:19;;;;;;;656.08;591.25;;;;;;;;;;4980796;28;20456;-75
2021/06/12 10:03:45;;;;;;;673.47;606.90;;;;;;;;;;4957089;28;20019;-74
2021/06/12 10:06:13;;;;;;;967.97;878.83;;;;;;;;;;4964240;28;20087;-74
2021/06/12 10:08:39;;;;;;;788.83;713.97;;;;;;;;;;4959070;28;20039;-74
2021/06/12 10:11:06;;;;;;;682.20;616.10;;;;;;;;;;4975514;28;20482;-74
2021/06/12 10:13:32;;;;;;;677.58;611.92;;;;;;;;;;4980914;28;20038;-74
2021/06/12 10:15:59;;;;;;;659.97;596.30;;;;;;;;;;4981759;28;20038;-75
2021/06/12 10:18:26;;;;;;;626.22;564.85;;;;;;;;;;4980387;28;20073;-74
2021/06/12 10:20:52;;;;;;;615.13;554.40;;;;;;;;;;4964265;28;20030;-75
2021/06/12 10:23:18;;;;;;;628.65;567.47;;;;;;;;;;4973987;28;20473;-74
2021/06/12 10:25:44;;;;;;;629.80;568.58;;;;;;;;;;4967001;28;20027;-74
2021/06/12 10:28:10;;;;;;;625.53;564.25;;;;;;;;;;4979867;28;20037;-74
2021/06/12 10:30:38;;;;;;;637.75;575.40;;;;;;;;;;4964657;28;20030;-73
2021/06/12 10:33:04;;;;;;;649.97;585.72;;;;;;;;;;4962367;28;20055;-76
2021/06/12 10:35:30;;;;;;;627.15;564.60;;;;;;;;;;4979718;28;20058;-73
2021/06/12 10:37:56;;;;;;;623.45;561.33;;;;;;;;;;4983507;28;20111;-72
2021/06/12 10:40:41;;;;;;;645.97;582.58;;;;;;;;;;4996261;28;20034;-72
2021/06/12 10:43:15;;;;;;;647.65;584.40;;;;;;;;;;4988998;28;20037;-76
2021/06/12 10:45:43;;;;;;;653.55;590.33;;;;;;;;;;4981657;28;20122;-74
2021/06/12 10:48:10;;;;;;;663.80;599.80;;;;;;;;;;4969969;28;20381;-74
2021/06/12 10:50:43;;;;;;;648.72;585.88;;;;;;;;;;4967808;28;20689;-73
2021/06/12 10:53:20;;;;;;;642.88;580.30;;;;;;;;;;4960617;28;20061;-73
2021/06/12 10:55:54;;;;;;;648.08;585.50;;;;;;;;;;4968678;28;20789;-73
2021/06/12 10:58:29;;;;;;;659.35;596.35;;;;;;;;;;4984471;28;20084;-73
2021/06/12 11:01:18;;;;;;;677.88;614.13;;;;;;;;;;4981708;28;20084;-73
2021/06/12 11:03:48;;;;;;;679.22;615.53;;;;;;;;;;4984961;28;20038;-74
2021/06/12 11:06:42;;;;;;;663.80;601.08;;;;;;;;;;4968560;28;20031;-73
2021/06/12 11:09:17;;;;;;;662.42;600.10;;;;;;;;;;4962036;28;20031;-74
2021/06/12 11:11:43;;;;;;;658.83;596.67;;;;;;;;;;4965802;28;20141;-75
2021/06/12 11:14:21;;;;;;;658.35;596.60;;;;;;;;;;4984942;28;20079;-73
2021/06/12 11:19:32;;;;;;;659.97;598.40;;;;;;;;;;4982919;28;20693;-73
2021/06/12 11:22:16;;;;;;;659.42;598.15;;;;;;;;;;4977082;28;20026;-73
2021/06/12 11:24:44;;;;;;;667.90;606.38;;;;;;;;;;4962150;28;20129;-74
2021/06/12 11:27:22;;;;;;;669.85;608.30;;;;;;;;;;4978576;28;20114;-73
2021/06/12 11:30:07;;;;;;;664.67;603.13;;;;;;;;;;4977434;28;20692;-73
2021/06/12 11:32:33;;;;;;;653.92;592.70;;;;;;;;;;4983332;28;20054;-73
2021/06/12 11:35:03;;;;;;;643.10;581.88;;;;;;;;;;4977020;28;20026;-73
2021/06/12 11:37:29;;;;;;;632.47;572.08;;;;;;;;;;4993006;28;20030;-73
2021/06/12 11:39:59;;;;;;;628.83;568.42;;;;;;;;;;4987727;28;20424;-72
2021/06/12 11:42:40;;;;;;;629.40;568.97;;;;;;;;;;4966006;28;20113;-73
2021/06/12 11:45:13;;;;;;;626.60;566.42;;;;;;;;;;4979339;28;20079;-74
2021/06/12 11:50:42;;;;;;;630.78;570.50;;;;;;;;;;4980192;28;20029;-73
2021/06/12 11:53:15;;;;;;;632.03;571.60;;;;;;;;;;4973688;28;20115;-73
2021/06/12 11:55:41;;;;;;;636.08;575.67;;;;;;;;;;4975408;28;20026;-73
2021/06/12 11:58:07;;;;;;;651.75;591.20;;;;;;;;;;4975720;28;20113;-74
2021/06/12 12:00:35;;;;;;;663.92;603.13;;;;;;;;;;4986743;28;20545;-74
2021/06/12 12:03:01;;;;;;;684.17;623.05;;;;;;;;;;4976046;28;20018;-75
2021/06/12 12:05:33;;;;;;;688.10;626.97;;;;;;;;;;4981222;28;20026;-73
2021/06/12 12:07:59;;;;;;;701.17;639.58;;;;;;;;;;4983352;28;22171;-73
2021/06/12 12:10:26;;;;;;;705.20;643.72;;;;;;;;;;4976270;28;20031;-73
2021/06/12 12:12:52;;;;;;;705.85;644.17;;;;;;;;;;4965043;28;20039;-73
2021/06/12 12:15:37;;;;;;;700.80;639.15;;;;;;;;;;4966422;28;20038;-74
2021/06/12 12:18:03;;;;;;;701.15;639.45;;;;;;;;;;4982662;28;20027;-73
2021/06/12 12:20:34;;;;;;;711.10;648.92;;;;;;;;;;4980209;28;20392;-72
2021/06/12 12:23:01;;;;;;;706.15;643.85;;;;;;;;;;4960768;28;20023;-73
2021/06/12 12:25:27;;;;;;;705.17;643.72;;;;;;;;;;4962353;28;20062;-73
2021/06/12 12:28:10;;;;;;;703.42;641.67;;;;;;;;;;4977172;28;20030;-74
2021/06/12 12:30:37;;;;;;;696.95;635.45;;;;;;;;;;4981121;28;20456;-78
2021/06/12 12:33:09;;;;;;;700.30;638.72;;;;;;;;;;4975393;28;20062;-73
2021/06/12 12:35:35;;;;;;;700.67;639.08;;;;;;;;;;4993533;28;20103;-73
2021/06/12 12:38:17;;;;;;;696.63;635.40;;;;;;;;;;4978749;28;20053;-75
2021/06/12 12:40:43;;;;;;;691.72;630.45;;;;;;;;;;4964149;28;20057;-73
2021/06/12 12:43:11;;;;;;;676.20;615.40;;;;;;;;;;4962458;28;20061;-73
2021/06/12 12:45:37;;;;;;;690.30;629.00;;;;;;;;;;4978927;28;20022;-73
2021/06/12 12:48:03;;;;;;;697.22;635.80;;;;;;;;;;4986177;28;20101;-73
2021/06/12 12:50:30;;;;;;;702.05;640.88;;;;;;;;;;4979066;28;20490;-73
2021/06/12 12:53:17;;;;;;;725.45;663.72;;;;;;;;;;4976617;28;20026;-73
2021/06/12 12:55:55;;;;;;;724.92;663.33;;;;;;;;;;4976213;28;20058;-73
2021/06/12 12:58:25;;;;;;;735.80;673.72;;;;;;;;;;4962133;28;20027;-73
2021/06/12 13:01:02;;;;;;;733.58;671.85;;;;;;;;;;4960891;28;20643;-73
2021/06/12 13:03:46;;;;;;;743.08;679.97;;;;;;;;;;4977124;28;20054;-74
2021/06/12 13:06:31;;;;;;;727.30;665.47;;;;;;;;;;4984172;28;20058;-73
2021/06/12 13:09:06;;;;;;;709.63;648.25;;;;;;;;;;4965069;28;20057;-73
2021/06/12 13:11:40;;;;;;;726.05;664.40;;;;;;;;;;4978765;28;20034;-73
2021/06/12 13:14:06;;;;;;;738.35;676.35;;;;;;;;;;4985729;28;20031;-73
2021/06/12 13:16:32;;;;;;;747.80;685.70;;;;;;;;;;4980586;28;20039;-73
2021/06/12 13:22:04;;;;;;;748.28;686.67;;;;;;;;;;4979028;28;20142;-73
2021/06/12 13:24:49;;;;;;;770.80;708.47;;;;;;;;;;4985329;28;20026;-72
2021/06/12 13:27:29;;;;;;;755.20;693.30;;;;;;;;;;4995422;28;20086;-74
2021/06/12 13:29:55;;;;;;;739.55;678.22;;;;;;;;;;4958415;28;20035;-72
2021/06/12 13:32:25;;;;;;;731.42;669.75;;;;;;;;;;4980555;28;20061;-73
2021/06/12 13:34:51;;;;;;;722.90;661.40;;;;;;;;;;4979153;28;20088;-73
2021/06/12 13:37:17;;;;;;;719.88;658.20;;;;;;;;;;4980606;28;20474;-74
2021/06/12 13:39:49;;;;;;;710.33;649.00;;;;;;;;;;5000634;28;20041;-74
2021/06/12 13:42:20;;;;;;;699.10;638.08;;;;;;;;;;4968995;28;20030;-73
2021/06/12 13:45:07;;;;;;;693.08;632.08;;;;;;;;;;4967946;28;20492;-73
2021/06/12 13:47:34;;;;;;;697.70;636.40;;;;;;;;;;4959208;28;20049;-74
2021/06/12 13:50:02;;;;;;;689.92;628.97;;;;;;;;;;4976123;28;20058;-75
2021/06/12 13:52:30;;;;;;;692.90;632.00;;;;;;;;;;4959581;28;20031;-73
2021/06/12 13:54:56;;;;;;;700.55;639.47;;;;;;;;;;4977958;28;20091;-73
2021/06/12 13:57:22;;;;;;;689.08;628.22;;;;;;;;;;4992716;28;20030;-73
2021/06/12 13:59:48;;;;;;;683.47;622.47;;;;;;;;;;4984884;28;20022;-75
2021/06/12 14:02:14;;;;;;;684.55;623.42;;;;;;;;;;4958169;28;20027;-74
2021/06/12 14:04:40;;;;;;;674.17;613.40;;;;;;;;;;4974328;28;20106;-74
2021/06/12 14:07:07;;;;;;;678.05;617.22;;;;;;;;;;4988981;28;20113;-73
2021/06/12 14:09:34;;;;;;;674.45;613.65;;;;;;;;;;4983458;28;20026;-74